sensor_id;sensor_type;location;lat;lon;timestamp;P1;durP1;ratioP1;P2;durP2;ratioP2
74543;SDS011;63016;55.030;38.710;2023-11-19T00:00:26;22.65;;;9.68;;
74543;SDS011;63016;55.030;38.710;2023-11-19T00:02:52;27.73;;;9.85;;
74543;SDS011;63016;55.030;38.710;2023-11-19T00:05:18;23.23;;;9.25;;
74543;SDS011;63016;55.030;38.710;2023-11-19T00:07:43;23.33;;;8.63;;
74543;SDS011;63016;55.030;38.710;2023-11-19T00:10:13;29.83;;;9.98;;
74543;SDS011;63016;55.030;38.710;2023-11-19T00:12:40;31.70;;;10.25;;
74543;SDS011;63016;55.030;38.710;2023-11-19T00:15:07;24.45;;;9.40;;
74543;SDS011;63016;55.030;38.710;2023-11-19T00:17:39;28.63;;;10.02;;
74543;SDS011;63016;55.030;38.710;2023-11-19T00:20:11;34.00;;;10.35;;
74543;SDS011;63016;55.030;38.710;2023-11-19T00:22:38;30.65;;;9.27;;
74543;SDS011;63016;55.030;38.710;2023-11-19T00:25:04;21.38;;;9.27;;
74543;SDS011;63016;55.030;38.710;2023-11-19T00:27:31;21.13;;;8.52;;
74543;SDS011;63016;55.030;38.710;2023-11-19T00:29:56;23.00;;;9.52;;
74543;SDS011;63016;55.030;38.710;2023-11-19T00:32:22;22.95;;;9.20;;
74543;SDS011;63016;55.030;38.710;2023-11-19T00:34:48;29.13;;;9.65;;
74543;SDS011;63016;55.030;38.710;2023-11-19T00:37:14;24.55;;;9.40;;
74543;SDS011;63016;55.030;38.710;2023-11-19T00:39:42;25.00;;;9.93;;
74543;SDS011;63016;55.030;38.710;2023-11-19T00:42:11;28.15;;;9.73;;
74543;SDS011;63016;55.030;38.710;2023-11-19T00:44:37;22.58;;;9.20;;
74543;SDS011;63016;55.030;38.710;2023-11-19T00:47:02;23.17;;;8.70;;
74543;SDS011;63016;55.030;38.710;2023-11-19T00:49:28;24.77;;;9.32;;
74543;SDS011;63016;55.030;38.710;2023-11-19T00:51:54;25.10;;;9.75;;
74543;SDS011;63016;55.030;38.710;2023-11-19T00:54:19;19.40;;;8.18;;
74543;SDS011;63016;55.030;38.710;2023-11-19T00:56:45;20.00;;;7.85;;
74543;SDS011;63016;55.030;38.710;2023-11-19T00:59:10;21.98;;;9.07;;
74543;SDS011;63016;55.030;38.710;2023-11-19T01:01:36;25.52;;;9.65;;
74543;SDS011;63016;55.030;38.710;2023-11-19T01:04:01;21.85;;;9.00;;
74543;SDS011;63016;55.030;38.710;2023-11-19T01:06:28;19.42;;;8.30;;
74543;SDS011;63016;55.030;38.710;2023-11-19T01:08:54;23.95;;;9.05;;
74543;SDS011;63016;55.030;38.710;2023-11-19T01:11:20;25.42;;;9.05;;
74543;SDS011;63016;55.030;38.710;2023-11-19T01:13:46;22.40;;;8.32;;
74543;SDS011;63016;55.030;38.710;2023-11-19T01:16:12;19.25;;;8.68;;
74543;SDS011;63016;55.030;38.710;2023-11-19T01:18:38;27.42;;;9.55;;
74543;SDS011;63016;55.030;38.710;2023-11-19T01:21:04;27.90;;;9.50;;
74543;SDS011;63016;55.030;38.710;2023-11-19T01:23:30;23.38;;;9.00;;
74543;SDS011;63016;55.030;38.710;2023-11-19T01:25:55;22.55;;;8.55;;
74543;SDS011;63016;55.030;38.710;2023-11-19T01:28:21;22.70;;;8.95;;
74543;SDS011;63016;55.030;38.710;2023-11-19T01:30:46;25.77;;;9.50;;
74543;SDS011;63016;55.030;38.710;2023-11-19T01:33:12;24.40;;;9.10;;
74543;SDS011;63016;55.030;38.710;2023-11-19T01:35:37;27.52;;;8.90;;
74543;SDS011;63016;55.030;38.710;2023-11-19T01:38:02;19.15;;;8.45;;
74543;SDS011;63016;55.030;38.710;2023-11-19T01:40:28;23.58;;;9.25;;
74543;SDS011;63016;55.030;38.710;2023-11-19T01:42:53;21.23;;;8.85;;
74543;SDS011;63016;55.030;38.710;2023-11-19T01:45:26;23.80;;;9.75;;
74543;SDS011;63016;55.030;38.710;2023-11-19T01:47:54;24.40;;;9.60;;
74543;SDS011;63016;55.030;38.710;2023-11-19T01:50:20;22.58;;;8.32;;
74543;SDS011;63016;55.030;38.710;2023-11-19T01:52:46;24.52;;;9.40;;
74543;SDS011;63016;55.030;38.710;2023-11-19T01:55:12;26.23;;;9.55;;
74543;SDS011;63016;55.030;38.710;2023-11-19T01:57:38;25.88;;;10.05;;
74543;SDS011;63016;55.030;38.710;2023-11-19T02:00:06;23.67;;;9.82;;
74543;SDS011;63016;55.030;38.710;2023-11-19T02:02:36;19.70;;;8.75;;
74543;SDS011;63016;55.030;38.710;2023-11-19T02:05:02;22.58;;;9.43;;
74543;SDS011;63016;55.030;38.710;2023-11-19T02:07:28;26.75;;;10.80;;
74543;SDS011;63016;55.030;38.710;2023-11-19T02:09:54;24.67;;;9.15;;
74543;SDS011;63016;55.030;38.710;2023-11-19T02:12:20;24.98;;;9.95;;
74543;SDS011;63016;55.030;38.710;2023-11-19T02:14:45;27.40;;;9.85;;
74543;SDS011;63016;55.030;38.710;2023-11-19T02:17:26;25.63;;;10.20;;
74543;SDS011;63016;55.030;38.710;2023-11-19T02:19:53;25.70;;;10.40;;
74543;SDS011;63016;55.030;38.710;2023-11-19T02:22:18;24.55;;;10.38;;
74543;SDS011;63016;55.030;38.710;2023-11-19T02:24:45;24.20;;;9.98;;
74543;SDS011;63016;55.030;38.710;2023-11-19T02:27:16;23.92;;;10.02;;
74543;SDS011;63016;55.030;38.710;2023-11-19T02:30:11;25.27;;;9.63;;
74543;SDS011;63016;55.030;38.710;2023-11-19T02:32:40;27.83;;;10.65;;
74543;SDS011;63016;55.030;38.710;2023-11-19T02:35:07;27.17;;;10.70;;
74543;SDS011;63016;55.030;38.710;2023-11-19T02:37:33;24.85;;;10.55;;
74543;SDS011;63016;55.030;38.710;2023-11-19T02:39:59;26.85;;;10.60;;
74543;SDS011;63016;55.030;38.710;2023-11-19T02:42:27;27.52;;;10.07;;
74543;SDS011;63016;55.030;38.710;2023-11-19T02:44:53;26.25;;;10.35;;
74543;SDS011;63016;55.030;38.710;2023-11-19T02:47:19;33.17;;;10.48;;
74543;SDS011;63016;55.030;38.710;2023-11-19T02:49:48;23.75;;;9.73;;
74543;SDS011;63016;55.030;38.710;2023-11-19T02:52:14;27.95;;;10.77;;
74543;SDS011;63016;55.030;38.710;2023-11-19T02:54:40;29.77;;;10.65;;
74543;SDS011;63016;55.030;38.710;2023-11-19T02:57:06;28.02;;;11.23;;
74543;SDS011;63016;55.030;38.710;2023-11-19T02:59:35;25.80;;;10.80;;
74543;SDS011;63016;55.030;38.710;2023-11-19T03:02:08;25.30;;;10.88;;
74543;SDS011;63016;55.030;38.710;2023-11-19T03:04:37;23.27;;;10.48;;
74543;SDS011;63016;55.030;38.710;2023-11-19T03:07:07;25.10;;;10.57;;
74543;SDS011;63016;55.030;38.710;2023-11-19T03:09:33;30.77;;;11.05;;
74543;SDS011;63016;55.030;38.710;2023-11-19T03:12:00;26.52;;;10.32;;
74543;SDS011;63016;55.030;38.710;2023-11-19T03:14:26;27.05;;;10.88;;
74543;SDS011;63016;55.030;38.710;2023-11-19T03:16:52;25.30;;;10.32;;
74543;SDS011;63016;55.030;38.710;2023-11-19T03:19:18;24.73;;;10.85;;
74543;SDS011;63016;55.030;38.710;2023-11-19T03:21:43;25.80;;;10.63;;
74543;SDS011;63016;55.030;38.710;2023-11-19T03:24:10;24.40;;;10.30;;
74543;SDS011;63016;55.030;38.710;2023-11-19T03:26:37;28.02;;;10.10;;
74543;SDS011;63016;55.030;38.710;2023-11-19T03:29:03;23.67;;;10.80;;
74543;SDS011;63016;55.030;38.710;2023-11-19T03:31:29;24.27;;;10.63;;
74543;SDS011;63016;55.030;38.710;2023-11-19T03:33:54;22.23;;;10.25;;
74543;SDS011;63016;55.030;38.710;2023-11-19T03:36:19;27.40;;;10.60;;
74543;SDS011;63016;55.030;38.710;2023-11-19T03:38:45;25.33;;;11.27;;
74543;SDS011;63016;55.030;38.710;2023-11-19T03:41:12;28.38;;;11.23;;
74543;SDS011;63016;55.030;38.710;2023-11-19T03:43:38;28.23;;;10.55;;
74543;SDS011;63016;55.030;38.710;2023-11-19T03:46:04;23.77;;;10.05;;
74543;SDS011;63016;55.030;38.710;2023-11-19T03:48:30;26.08;;;10.60;;
74543;SDS011;63016;55.030;38.710;2023-11-19T03:50:56;26.85;;;10.75;;
74543;SDS011;63016;55.030;38.710;2023-11-19T03:53:21;26.40;;;10.40;;
74543;SDS011;63016;55.030;38.710;2023-11-19T03:55:49;23.48;;;10.15;;
74543;SDS011;63016;55.030;38.710;2023-11-19T03:58:15;26.13;;;10.77;;
74543;SDS011;63016;55.030;38.710;2023-11-19T04:00:40;26.17;;;11.43;;
74543;SDS011;63016;55.030;38.710;2023-11-19T04:03:06;27.13;;;10.40;;
74543;SDS011;63016;55.030;38.710;2023-11-19T04:05:31;27.38;;;10.25;;
74543;SDS011;63016;55.030;38.710;2023-11-19T04:07:57;24.52;;;10.55;;
74543;SDS011;63016;55.030;38.710;2023-11-19T04:10:22;21.95;;;9.93;;
74543;SDS011;63016;55.030;38.710;2023-11-19T04:12:48;29.17;;;10.93;;
74543;SDS011;63016;55.030;38.710;2023-11-19T04:15:14;26.65;;;10.90;;
74543;SDS011;63016;55.030;38.710;2023-11-19T04:17:39;21.65;;;9.45;;
74543;SDS011;63016;55.030;38.710;2023-11-19T04:20:05;27.55;;;10.35;;
74543;SDS011;63016;55.030;38.710;2023-11-19T04:22:31;25.10;;;10.30;;
74543;SDS011;63016;55.030;38.710;2023-11-19T04:24:56;23.33;;;9.98;;
74543;SDS011;63016;55.030;38.710;2023-11-19T04:27:22;21.27;;;9.43;;
74543;SDS011;63016;55.030;38.710;2023-11-19T04:29:47;19.90;;;9.48;;
74543;SDS011;63016;55.030;38.710;2023-11-19T04:32:13;25.00;;;9.63;;
74543;SDS011;63016;55.030;38.710;2023-11-19T04:34:39;26.02;;;10.27;;
74543;SDS011;63016;55.030;38.710;2023-11-19T04:37:05;26.33;;;9.45;;
74543;SDS011;63016;55.030;38.710;2023-11-19T04:39:30;25.77;;;10.10;;
74543;SDS011;63016;55.030;38.710;2023-11-19T04:41:56;23.90;;;10.00;;
74543;SDS011;63016;55.030;38.710;2023-11-19T04:44:21;23.48;;;10.18;;
74543;SDS011;63016;55.030;38.710;2023-11-19T04:46:47;26.10;;;9.52;;
74543;SDS011;63016;55.030;38.710;2023-11-19T04:49:13;23.25;;;9.40;;
74543;SDS011;63016;55.030;38.710;2023-11-19T04:51:43;27.60;;;9.70;;
74543;SDS011;63016;55.030;38.710;2023-11-19T04:54:10;22.80;;;9.50;;
74543;SDS011;63016;55.030;38.710;2023-11-19T04:56:36;24.83;;;10.23;;
74543;SDS011;63016;55.030;38.710;2023-11-19T04:59:02;27.60;;;9.13;;
74543;SDS011;63016;55.030;38.710;2023-11-19T05:01:30;22.80;;;9.45;;
74543;SDS011;63016;55.030;38.710;2023-11-19T05:03:56;22.42;;;9.38;;
74543;SDS011;63016;55.030;38.710;2023-11-19T05:06:25;24.63;;;9.90;;
74543;SDS011;63016;55.030;38.710;2023-11-19T05:08:55;24.80;;;10.00;;
74543;SDS011;63016;55.030;38.710;2023-11-19T05:11:21;24.00;;;9.60;;
74543;SDS011;63016;55.030;38.710;2023-11-19T05:13:47;27.85;;;9.88;;
74543;SDS011;63016;55.030;38.710;2023-11-19T05:16:13;24.67;;;10.45;;
74543;SDS011;63016;55.030;38.710;2023-11-19T05:18:42;24.55;;;10.48;;
74543;SDS011;63016;55.030;38.710;2023-11-19T05:21:08;22.60;;;10.27;;
74543;SDS011;63016;55.030;38.710;2023-11-19T05:23:33;25.08;;;9.48;;
74543;SDS011;63016;55.030;38.710;2023-11-19T05:26:00;26.23;;;10.65;;
74543;SDS011;63016;55.030;38.710;2023-11-19T05:28:26;21.50;;;9.15;;
74543;SDS011;63016;55.030;38.710;2023-11-19T05:30:52;23.60;;;10.23;;
74543;SDS011;63016;55.030;38.710;2023-11-19T05:33:17;29.05;;;10.75;;
74543;SDS011;63016;55.030;38.710;2023-11-19T05:35:43;28.23;;;10.30;;
74543;SDS011;63016;55.030;38.710;2023-11-19T05:38:08;24.27;;;10.35;;
74543;SDS011;63016;55.030;38.710;2023-11-19T05:40:34;23.33;;;9.23;;
74543;SDS011;63016;55.030;38.710;2023-11-19T05:43:01;25.13;;;10.00;;
74543;SDS011;63016;55.030;38.710;2023-11-19T05:45:27;26.95;;;10.15;;
74543;SDS011;63016;55.030;38.710;2023-11-19T05:47:52;24.90;;;10.73;;
74543;SDS011;63016;55.030;38.710;2023-11-19T05:50:18;25.75;;;11.60;;
74543;SDS011;63016;55.030;38.710;2023-11-19T05:52:44;24.27;;;9.95;;
74543;SDS011;63016;55.030;38.710;2023-11-19T05:55:10;22.50;;;10.57;;
74543;SDS011;63016;55.030;38.710;2023-11-19T05:57:38;22.58;;;9.00;;
74543;SDS011;63016;55.030;38.710;2023-11-19T06:00:07;22.35;;;9.45;;
74543;SDS011;63016;55.030;38.710;2023-11-19T06:02:35;19.23;;;8.60;;
74543;SDS011;63016;55.030;38.710;2023-11-19T06:05:02;23.65;;;9.55;;
74543;SDS011;63016;55.030;38.710;2023-11-19T06:07:30;20.15;;;9.45;;
74543;SDS011;63016;55.030;38.710;2023-11-19T06:09:56;22.20;;;9.00;;
74543;SDS011;63016;55.030;38.710;2023-11-19T06:12:21;21.27;;;8.40;;
74543;SDS011;63016;55.030;38.710;2023-11-19T06:14:47;20.50;;;8.70;;
74543;SDS011;63016;55.030;38.710;2023-11-19T06:17:13;19.50;;;8.80;;
74543;SDS011;63016;55.030;38.710;2023-11-19T06:19:38;19.55;;;7.93;;
74543;SDS011;63016;55.030;38.710;2023-11-19T06:22:04;21.73;;;8.80;;
74543;SDS011;63016;55.030;38.710;2023-11-19T06:24:29;21.92;;;7.75;;
74543;SDS011;63016;55.030;38.710;2023-11-19T06:26:55;26.77;;;8.07;;
74543;SDS011;63016;55.030;38.710;2023-11-19T06:29:20;17.27;;;7.75;;
74543;SDS011;63016;55.030;38.710;2023-11-19T06:31:46;17.77;;;7.20;;
74543;SDS011;63016;55.030;38.710;2023-11-19T06:34:14;17.40;;;8.40;;
74543;SDS011;63016;55.030;38.710;2023-11-19T06:36:39;23.10;;;9.18;;
74543;SDS011;63016;55.030;38.710;2023-11-19T06:39:05;21.25;;;8.27;;
74543;SDS011;63016;55.030;38.710;2023-11-19T06:41:31;19.20;;;8.35;;
74543;SDS011;63016;55.030;38.710;2023-11-19T06:43:56;18.45;;;8.35;;
74543;SDS011;63016;55.030;38.710;2023-11-19T06:46:22;22.15;;;9.15;;
74543;SDS011;63016;55.030;38.710;2023-11-19T06:48:47;19.52;;;9.70;;
74543;SDS011;63016;55.030;38.710;2023-11-19T06:51:13;18.95;;;9.48;;
74543;SDS011;63016;55.030;38.710;2023-11-19T06:53:39;20.27;;;9.27;;
74543;SDS011;63016;55.030;38.710;2023-11-19T06:56:19;18.73;;;9.23;;
74543;SDS011;63016;55.030;38.710;2023-11-19T06:58:48;17.88;;;8.98;;
74543;SDS011;63016;55.030;38.710;2023-11-19T07:01:17;24.00;;;9.35;;
74543;SDS011;63016;55.030;38.710;2023-11-19T07:03:46;19.40;;;8.80;;
74543;SDS011;63016;55.030;38.710;2023-11-19T07:06:12;23.15;;;9.13;;
74543;SDS011;63016;55.030;38.710;2023-11-19T07:08:41;18.08;;;7.93;;
74543;SDS011;63016;55.030;38.710;2023-11-19T07:11:06;16.65;;;8.25;;
74543;SDS011;63016;55.030;38.710;2023-11-19T07:13:34;17.88;;;8.20;;
74543;SDS011;63016;55.030;38.710;2023-11-19T07:16:00;15.10;;;6.38;;
74543;SDS011;63016;55.030;38.710;2023-11-19T07:18:26;19.35;;;6.47;;
74543;SDS011;63016;55.030;38.710;2023-11-19T07:20:51;11.88;;;5.22;;
74543;SDS011;63016;55.030;38.710;2023-11-19T07:23:17;18.77;;;7.45;;
74543;SDS011;63016;55.030;38.710;2023-11-19T07:25:43;13.90;;;5.68;;
74543;SDS011;63016;55.030;38.710;2023-11-19T07:28:11;13.27;;;6.22;;
74543;SDS011;63016;55.030;38.710;2023-11-19T07:30:37;13.02;;;6.00;;
74543;SDS011;63016;55.030;38.710;2023-11-19T07:33:03;10.38;;;5.82;;
74543;SDS011;63016;55.030;38.710;2023-11-19T07:35:29;12.85;;;5.63;;
74543;SDS011;63016;55.030;38.710;2023-11-19T07:37:56;16.08;;;6.25;;
74543;SDS011;63016;55.030;38.710;2023-11-19T07:40:22;28.63;;;6.82;;
74543;SDS011;63016;55.030;38.710;2023-11-19T07:42:48;14.75;;;6.35;;
74543;SDS011;63016;55.030;38.710;2023-11-19T07:45:14;19.70;;;6.50;;
74543;SDS011;63016;55.030;38.710;2023-11-19T07:47:40;20.55;;;5.72;;
74543;SDS011;63016;55.030;38.710;2023-11-19T07:50:05;27.52;;;6.10;;
74543;SDS011;63016;55.030;38.710;2023-11-19T07:52:31;21.08;;;6.03;;
74543;SDS011;63016;55.030;38.710;2023-11-19T07:54:57;18.10;;;5.65;;
74543;SDS011;63016;55.030;38.710;2023-11-19T07:57:22;13.60;;;5.50;;
74543;SDS011;63016;55.030;38.710;2023-11-19T07:59:49;12.38;;;5.72;;
74543;SDS011;63016;55.030;38.710;2023-11-19T08:02:14;13.48;;;6.28;;
74543;SDS011;63016;55.030;38.710;2023-11-19T08:04:40;13.75;;;6.28;;
74543;SDS011;63016;55.030;38.710;2023-11-19T08:07:10;11.55;;;6.00;;
74543;SDS011;63016;55.030;38.710;2023-11-19T08:09:36;13.77;;;6.47;;
74543;SDS011;63016;55.030;38.710;2023-11-19T08:12:02;13.40;;;6.07;;
74543;SDS011;63016;55.030;38.710;2023-11-19T08:14:28;14.07;;;6.45;;
74543;SDS011;63016;55.030;38.710;2023-11-19T08:16:54;11.60;;;6.45;;
74543;SDS011;63016;55.030;38.710;2023-11-19T08:19:20;12.13;;;6.38;;
74543;SDS011;63016;55.030;38.710;2023-11-19T08:21:45;12.65;;;5.97;;
74543;SDS011;63016;55.030;38.710;2023-11-19T08:24:11;12.85;;;6.22;;
74543;SDS011;63016;55.030;38.710;2023-11-19T08:26:36;12.95;;;6.10;;
74543;SDS011;63016;55.030;38.710;2023-11-19T08:29:02;13.40;;;6.10;;
74543;SDS011;63016;55.030;38.710;2023-11-19T08:31:28;22.15;;;6.75;;
74543;SDS011;63016;55.030;38.710;2023-11-19T08:33:54;16.80;;;5.00;;
74543;SDS011;63016;55.030;38.710;2023-11-19T08:36:19;15.55;;;4.95;;
74543;SDS011;63016;55.030;38.710;2023-11-19T08:38:45;9.88;;;4.18;;
74543;SDS011;63016;55.030;38.710;2023-11-19T08:41:11;7.55;;;3.25;;
74543;SDS011;63016;55.030;38.710;2023-11-19T08:43:37;7.43;;;3.25;;
74543;SDS011;63016;55.030;38.710;2023-11-19T08:46:03;7.43;;;3.08;;
74543;SDS011;63016;55.030;38.710;2023-11-19T08:48:29;6.88;;;3.38;;
74543;SDS011;63016;55.030;38.710;2023-11-19T08:50:54;7.72;;;3.75;;
74543;SDS011;63016;55.030;38.710;2023-11-19T08:53:20;5.53;;;3.20;;
74543;SDS011;63016;55.030;38.710;2023-11-19T08:55:46;6.32;;;3.47;;
74543;SDS011;63016;55.030;38.710;2023-11-19T08:58:11;8.15;;;3.10;;
74543;SDS011;63016;55.030;38.710;2023-11-19T09:00:37;10.70;;;4.15;;
74543;SDS011;63016;55.030;38.710;2023-11-19T09:03:02;16.27;;;4.25;;
74543;SDS011;63016;55.030;38.710;2023-11-19T09:05:28;9.60;;;4.28;;
74543;SDS011;63016;55.030;38.710;2023-11-19T09:07:53;10.00;;;4.95;;
74543;SDS011;63016;55.030;38.710;2023-11-19T09:10:19;8.68;;;4.35;;
74543;SDS011;63016;55.030;38.710;2023-11-19T09:12:45;12.07;;;5.35;;
74543;SDS011;63016;55.030;38.710;2023-11-19T09:15:10;9.90;;;4.38;;
74543;SDS011;63016;55.030;38.710;2023-11-19T09:17:36;14.60;;;4.75;;
74543;SDS011;63016;55.030;38.710;2023-11-19T09:20:01;8.80;;;4.85;;
74543;SDS011;63016;55.030;38.710;2023-11-19T09:22:27;8.30;;;4.70;;
74543;SDS011;63016;55.030;38.710;2023-11-19T09:24:52;8.85;;;4.90;;
74543;SDS011;63016;55.030;38.710;2023-11-19T09:27:18;8.27;;;3.85;;
74543;SDS011;63016;55.030;38.710;2023-11-19T09:29:43;10.25;;;3.65;;
74543;SDS011;63016;55.030;38.710;2023-11-19T09:32:11;8.20;;;4.20;;
74543;SDS011;63016;55.030;38.710;2023-11-19T09:34:36;9.88;;;4.10;;
74543;SDS011;63016;55.030;38.710;2023-11-19T09:37:01;9.77;;;4.70;;
74543;SDS011;63016;55.030;38.710;2023-11-19T09:39:28;15.32;;;5.05;;
74543;SDS011;63016;55.030;38.710;2023-11-19T09:41:53;13.20;;;4.00;;
74543;SDS011;63016;55.030;38.710;2023-11-19T09:44:19;11.30;;;4.72;;
74543;SDS011;63016;55.030;38.710;2023-11-19T09:46:45;11.85;;;4.30;;
74543;SDS011;63016;55.030;38.710;2023-11-19T09:49:11;13.82;;;4.72;;
74543;SDS011;63016;55.030;38.710;2023-11-19T09:51:38;7.63;;;4.05;;
74543;SDS011;63016;55.030;38.710;2023-11-19T09:54:04;10.77;;;4.15;;
74543;SDS011;63016;55.030;38.710;2023-11-19T09:56:30;9.27;;;4.50;;
74543;SDS011;63016;55.030;38.710;2023-11-19T09:58:56;9.07;;;4.32;;
74543;SDS011;63016;55.030;38.710;2023-11-19T10:01:21;9.38;;;4.38;;
74543;SDS011;63016;55.030;38.710;2023-11-19T10:03:47;8.38;;;4.30;;
74543;SDS011;63016;55.030;38.710;2023-11-19T10:06:15;8.80;;;4.90;;
74543;SDS011;63016;55.030;38.710;2023-11-19T10:08:41;10.40;;;4.00;;
74543;SDS011;63016;55.030;38.710;2023-11-19T10:11:07;8.73;;;4.38;;
74543;SDS011;63016;55.030;38.710;2023-11-19T10:13:36;8.30;;;4.40;;
74543;SDS011;63016;55.030;38.710;2023-11-19T10:16:12;6.88;;;4.22;;
74543;SDS011;63016;55.030;38.710;2023-11-19T10:18:48;13.63;;;4.45;;
74543;SDS011;63016;55.030;38.710;2023-11-19T10:21:19;13.50;;;4.80;;
74543;SDS011;63016;55.030;38.710;2023-11-19T10:23:48;8.95;;;4.50;;
74543;SDS011;63016;55.030;38.710;2023-11-19T10:28:43;9.05;;;4.30;;
74543;SDS011;63016;55.030;38.710;2023-11-19T10:31:11;8.07;;;4.88;;
74543;SDS011;63016;55.030;38.710;2023-11-19T10:33:38;10.05;;;4.78;;
74543;SDS011;63016;55.030;38.710;2023-11-19T10:36:03;10.27;;;4.53;;
74543;SDS011;63016;55.030;38.710;2023-11-19T10:38:29;8.43;;;4.63;;
74543;SDS011;63016;55.030;38.710;2023-11-19T10:40:55;13.10;;;4.63;;
74543;SDS011;63016;55.030;38.710;2023-11-19T10:43:21;9.55;;;4.30;;
74543;SDS011;63016;55.030;38.710;2023-11-19T10:45:48;7.97;;;4.55;;
74543;SDS011;63016;55.030;38.710;2023-11-19T10:48:14;7.65;;;4.35;;
74543;SDS011;63016;55.030;38.710;2023-11-19T10:50:43;7.97;;;4.03;;
74543;SDS011;63016;55.030;38.710;2023-11-19T10:53:10;10.73;;;5.05;;
74543;SDS011;63016;55.030;38.710;2023-11-19T10:55:40;8.02;;;4.18;;
74543;SDS011;63016;55.030;38.710;2023-11-19T10:58:10;9.88;;;4.82;;
74543;SDS011;63016;55.030;38.710;2023-11-19T11:03:19;8.15;;;3.67;;
74543;SDS011;63016;55.030;38.710;2023-11-19T11:05:46;10.85;;;4.07;;
74543;SDS011;63016;55.030;38.710;2023-11-19T11:08:13;12.50;;;3.40;;
74543;SDS011;63016;55.030;38.710;2023-11-19T11:10:47;11.77;;;4.18;;
74543;SDS011;63016;55.030;38.710;2023-11-19T11:13:18;12.18;;;4.05;;
74543;SDS011;63016;55.030;38.710;2023-11-19T11:15:44;7.80;;;3.53;;
74543;SDS011;63016;55.030;38.710;2023-11-19T11:18:12;16.55;;;3.90;;
74543;SDS011;63016;55.030;38.710;2023-11-19T11:20:38;9.15;;;4.00;;
74543;SDS011;63016;55.030;38.710;2023-11-19T11:31:28;12.23;;;4.72;;
74543;SDS011;63016;55.030;38.710;2023-11-19T11:37:06;13.85;;;4.05;;
74543;SDS011;63016;55.030;38.710;2023-11-19T11:39:51;49.58;;;6.80;;
74543;SDS011;63016;55.030;38.710;2023-11-19T11:45:01;14.30;;;4.78;;
74543;SDS011;63016;55.030;38.710;2023-11-19T11:50:08;10.90;;;4.70;;
74543;SDS011;63016;55.030;38.710;2023-11-19T11:55:36;13.05;;;4.72;;
74543;SDS011;63016;55.030;38.710;2023-11-19T11:58:20;9.70;;;4.65;;
74543;SDS011;63016;55.030;38.710;2023-11-19T12:00:46;13.38;;;5.35;;
74543;SDS011;63016;55.030;38.710;2023-11-19T12:03:13;11.75;;;5.40;;
74543;SDS011;63016;55.030;38.710;2023-11-19T12:05:40;13.05;;;6.00;;
74543;SDS011;63016;55.030;38.710;2023-11-19T12:08:07;11.35;;;5.70;;
74543;SDS011;63016;55.030;38.710;2023-11-19T12:10:37;12.85;;;5.57;;
74543;SDS011;63016;55.030;38.710;2023-11-19T12:13:10;10.73;;;5.57;;
74543;SDS011;63016;55.030;38.710;2023-11-19T12:18:22;10.60;;;5.40;;
74543;SDS011;63016;55.030;38.710;2023-11-19T12:20:49;14.10;;;6.75;;
74543;SDS011;63016;55.030;38.710;2023-11-19T12:23:15;12.23;;;5.60;;
74543;SDS011;63016;55.030;38.710;2023-11-19T12:25:40;12.07;;;5.95;;
74543;SDS011;63016;55.030;38.710;2023-11-19T12:28:11;19.02;;;6.78;;
74543;SDS011;63016;55.030;38.710;2023-11-19T12:30:38;13.80;;;6.22;;
74543;SDS011;63016;55.030;38.710;2023-11-19T12:33:07;15.27;;;6.40;;
74543;SDS011;63016;55.030;38.710;2023-11-19T12:35:40;17.00;;;5.78;;
74543;SDS011;63016;55.030;38.710;2023-11-19T12:38:08;12.82;;;5.85;;
74543;SDS011;63016;55.030;38.710;2023-11-19T12:40:43;12.40;;;6.00;;
74543;SDS011;63016;55.030;38.710;2023-11-19T12:43:08;12.43;;;6.05;;
74543;SDS011;63016;55.030;38.710;2023-11-19T12:45:35;10.38;;;5.28;;
74543;SDS011;63016;55.030;38.710;2023-11-19T12:48:04;13.43;;;5.40;;
74543;SDS011;63016;55.030;38.710;2023-11-19T12:50:56;16.58;;;7.10;;
74543;SDS011;63016;55.030;38.710;2023-11-19T12:53:23;12.40;;;6.25;;
74543;SDS011;63016;55.030;38.710;2023-11-19T12:55:50;13.05;;;5.63;;
74543;SDS011;63016;55.030;38.710;2023-11-19T12:58:32;12.52;;;5.88;;
74543;SDS011;63016;55.030;38.710;2023-11-19T13:01:06;15.60;;;6.43;;
74543;SDS011;63016;55.030;38.710;2023-11-19T13:03:33;12.93;;;5.97;;
74543;SDS011;63016;55.030;38.710;2023-11-19T13:06:02;12.68;;;6.32;;
74543;SDS011;63016;55.030;38.710;2023-11-19T13:08:29;16.73;;;6.85;;
74543;SDS011;63016;55.030;38.710;2023-11-19T13:11:02;27.80;;;6.45;;
74543;SDS011;63016;55.030;38.710;2023-11-19T13:13:28;21.70;;;7.32;;
74543;SDS011;63016;55.030;38.710;2023-11-19T13:16:01;17.63;;;7.28;;
74543;SDS011;63016;55.030;38.710;2023-11-19T13:18:30;17.55;;;7.35;;
74543;SDS011;63016;55.030;38.710;2023-11-19T13:20:56;16.13;;;7.40;;
74543;SDS011;63016;55.030;38.710;2023-11-19T13:23:22;20.10;;;8.07;;
74543;SDS011;63016;55.030;38.710;2023-11-19T13:25:48;37.22;;;9.32;;
74543;SDS011;63016;55.030;38.710;2023-11-19T13:28:14;16.77;;;7.90;;
74543;SDS011;63016;55.030;38.710;2023-11-19T13:30:39;21.88;;;8.43;;
74543;SDS011;63016;55.030;38.710;2023-11-19T13:33:05;16.90;;;7.82;;
74543;SDS011;63016;55.030;38.710;2023-11-19T13:35:30;21.98;;;9.20;;
74543;SDS011;63016;55.030;38.710;2023-11-19T13:37:56;21.60;;;9.98;;
74543;SDS011;63016;55.030;38.710;2023-11-19T13:40:21;20.40;;;9.15;;
74543;SDS011;63016;55.030;38.710;2023-11-19T13:42:49;24.98;;;10.07;;
74543;SDS011;63016;55.030;38.710;2023-11-19T13:45:15;19.98;;;9.50;;
74543;SDS011;63016;55.030;38.710;2023-11-19T13:47:43;23.33;;;10.40;;
74543;SDS011;63016;55.030;38.710;2023-11-19T13:50:09;21.13;;;9.20;;
74543;SDS011;63016;55.030;38.710;2023-11-19T13:52:37;21.80;;;9.43;;
74543;SDS011;63016;55.030;38.710;2023-11-19T13:55:06;26.23;;;9.10;;
74543;SDS011;63016;55.030;38.710;2023-11-19T13:57:34;21.38;;;9.48;;
74543;SDS011;63016;55.030;38.710;2023-11-19T14:00:04;16.17;;;6.90;;
74543;SDS011;63016;55.030;38.710;2023-11-19T14:02:32;19.70;;;7.93;;
74543;SDS011;63016;55.030;38.710;2023-11-19T14:04:58;17.33;;;7.80;;
74543;SDS011;63016;55.030;38.710;2023-11-19T14:07:24;16.63;;;6.85;;
74543;SDS011;63016;55.030;38.710;2023-11-19T14:09:49;17.15;;;6.20;;
74543;SDS011;63016;55.030;38.710;2023-11-19T14:12:15;13.15;;;5.38;;
74543;SDS011;63016;55.030;38.710;2023-11-19T14:14:41;12.43;;;4.78;;
74543;SDS011;63016;55.030;38.710;2023-11-19T14:17:07;9.45;;;4.70;;
74543;SDS011;63016;55.030;38.710;2023-11-19T14:19:33;14.35;;;5.43;;
74543;SDS011;63016;55.030;38.710;2023-11-19T14:21:58;11.27;;;4.53;;
74543;SDS011;63016;55.030;38.710;2023-11-19T14:24:25;10.52;;;4.43;;
74543;SDS011;63016;55.030;38.710;2023-11-19T14:26:51;9.98;;;4.38;;
74543;SDS011;63016;55.030;38.710;2023-11-19T14:29:17;6.55;;;3.53;;
74543;SDS011;63016;55.030;38.710;2023-11-19T14:31:43;6.22;;;3.70;;
74543;SDS011;63016;55.030;38.710;2023-11-19T14:34:08;8.98;;;4.40;;
74543;SDS011;63016;55.030;38.710;2023-11-19T14:36:34;9.52;;;4.03;;
74543;SDS011;63016;55.030;38.710;2023-11-19T14:39:00;5.20;;;3.30;;
74543;SDS011;63016;55.030;38.710;2023-11-19T14:41:26;8.10;;;3.55;;
74543;SDS011;63016;55.030;38.710;2023-11-19T14:43:51;10.73;;;3.08;;
74543;SDS011;63016;55.030;38.710;2023-11-19T14:46:17;11.55;;;4.05;;